Alianca, Brazil
Current Conditions -  °F | °C
As of 6:00 PM on Saturday 22 Nov 2014 (Local Time) from SBJP Reporting Station
Scattered Clouds Scattered Clouds  
Wind Chill: 79°   Ceiling: Unl
Heat Index: 81°   Visibility: 6mi
Dew Point: 70°   Wind: 9mph
Humidity: 74%   Direction: 110°ESE
Pressure: 29.91"   Gusts: NA
Location:  7.6°S, 35.23°W
Report Text: SBJP 222100Z 11008KT 9999 SCT020 26/21 Q1013
Loading
Personal Weather Stations






























Interactive Weather Map New forecast layout! Learn more

10-Day Weather Forecast

Advertisements
Track Severe Weather on mobile